KHMN/HMN METAR and TAF weather

Enter ICAO airport designator
Station Type Date Time Source
KHMN METAR 2021/01/17 17:58 UTC NOAA

KHMN 171758Z AUTO 04004KT 10SM CLR 09/M10 A3019 RMK AO2 SLP210 T00891101 10089 21064 50002 $


Station Type Date Time Source
KHMN Decoded METAR 2021/01/17 17:58 UTC NOAA

Holloman Air Force Base, NM, United States (KHMN) 32-51N 106-06W 1248M
Jan 17, 2021 - 12:58 PM EST / 2021.01.17 1758 UTC
Wind: from the NE (040 degrees) at 5 MPH (4 KT):0
Visibility: 10 mile(s):0
Sky conditions: clear
Temperature: 48.0 F (8.9 C)
Dew Point: 13.8 F (-10.1 C)
Relative Humidity: 24%
Pressure (altimeter): 30.19 in. Hg (1022 hPa)
Pressure tendency: 0.01 inches (0.2 hPa) higher than three hours ago
ob: KHMN 171758Z AUTO 04004KT 10SM CLR 09/M10 A3019 RMK AO2 SLP210 T00891101 10089 21064 50002
cycle: 18

Station Type Date Time Source
KHMN TAF 2021/01/14 22:06 UTC NOAA

TAF TAF
AMD KHMN 142200Z 1422/1523 33012G18KT 9999 BKN240 QNH3010INS
TEMPO 1506/1510 36015G25KT
BECMG 1511/1512 01012KT 9999 FEW240 QNH3025INS
BECMG 1515/1516 01015G25KT 9999 FEW240 QNH3018INS TX17/1422Z TNM04/1514Z

Example: see airport list